sensor_id;sensor_type;location;lat;lon;timestamp;temperature;humidity
20795;DHT22;28087;-33.874;151.240;2022-11-27T00:01:39;22.10;99.90
20795;DHT22;28087;-33.874;151.240;2022-11-27T00:04:16;22.10;99.90
20795;DHT22;28087;-33.874;151.240;2022-11-27T00:06:55;22.20;99.90
20795;DHT22;28087;-33.874;151.240;2022-11-27T00:09:31;22.20;99.90
20795;DHT22;28087;-33.874;151.240;2022-11-27T00:12:07;22.10;99.90
20795;DHT22;28087;-33.874;151.240;2022-11-27T00:14:44;22.10;99.90
20795;DHT22;28087;-33.874;151.240;2022-11-27T00:17:25;22.20;99.90
20795;DHT22;28087;-33.874;151.240;2022-11-27T00:23:02;22.20;99.90
20795;DHT22;28087;-33.874;151.240;2022-11-27T00:25:39;22.20;99.90
20795;DHT22;28087;-33.874;151.240;2022-11-27T00:28:17;22.20;99.90
20795;DHT22;28087;-33.874;151.240;2022-11-27T00:30:56;22.20;99.90
20795;DHT22;28087;-33.874;151.240;2022-11-27T00:33:33;22.30;99.90
20795;DHT22;28087;-33.874;151.240;2022-11-27T00:36:11;22.30;99.90
20795;DHT22;28087;-33.874;151.240;2022-11-27T00:38:50;22.30;99.90
20795;DHT22;28087;-33.874;151.240;2022-11-27T00:41:27;22.30;99.90
20795;DHT22;28087;-33.874;151.240;2022-11-27T00:44:04;22.20;99.90
20795;DHT22;28087;-33.874;151.240;2022-11-27T00:46:44;22.20;99.90
20795;DHT22;28087;-33.874;151.240;2022-11-27T00:49:23;22.20;99.90
20795;DHT22;28087;-33.874;151.240;2022-11-27T00:51:59;22.20;99.90
20795;DHT22;28087;-33.874;151.240;2022-11-27T00:54:37;22.30;99.90
20795;DHT22;28087;-33.874;151.240;2022-11-27T00:57:14;22.40;99.90
20795;DHT22;28087;-33.874;151.240;2022-11-27T00:59:50;22.50;99.90
20795;DHT22;28087;-33.874;151.240;2022-11-27T01:02:26;22.60;99.90
20795;DHT22;28087;-33.874;151.240;2022-11-27T01:05:02;22.70;99.90
20795;DHT22;28087;-33.874;151.240;2022-11-27T01:07:40;22.80;99.90
20795;DHT22;28087;-33.874;151.240;2022-11-27T01:10:20;22.80;99.90
20795;DHT22;28087;-33.874;151.240;2022-11-27T01:12:56;22.80;99.90
20795;DHT22;28087;-33.874;151.240;2022-11-27T01:15:32;22.80;99.90
20795;DHT22;28087;-33.874;151.240;2022-11-27T01:18:18;22.80;99.90
20795;DHT22;28087;-33.874;151.240;2022-11-27T01:20:56;22.90;99.90
20795;DHT22;28087;-33.874;151.240;2022-11-27T01:23:35;22.90;99.90
20795;DHT22;28087;-33.874;151.240;2022-11-27T01:26:15;22.90;99.90
20795;DHT22;28087;-33.874;151.240;2022-11-27T01:29:00;22.90;99.90
20795;DHT22;28087;-33.874;151.240;2022-11-27T01:31:38;23.00;99.90
20795;DHT22;28087;-33.874;151.240;2022-11-27T01:34:16;23.00;99.90
20795;DHT22;28087;-33.874;151.240;2022-11-27T01:36:52;22.90;99.90
20795;DHT22;28087;-33.874;151.240;2022-11-27T01:39:29;22.90;99.90
20795;DHT22;28087;-33.874;151.240;2022-11-27T01:42:10;22.80;99.90
20795;DHT22;28087;-33.874;151.240;2022-11-27T01:44:52;22.80;99.90
20795;DHT22;28087;-33.874;151.240;2022-11-27T01:47:36;22.90;99.90
20795;DHT22;28087;-33.874;151.240;2022-11-27T01:50:18;23.00;99.90
20795;DHT22;28087;-33.874;151.240;2022-11-27T01:52:58;23.10;99.90
20795;DHT22;28087;-33.874;151.240;2022-11-27T01:55:39;23.00;99.90
20795;DHT22;28087;-33.874;151.240;2022-11-27T01:58:22;23.10;99.90
20795;DHT22;28087;-33.874;151.240;2022-11-27T02:01:10;23.20;99.90
20795;DHT22;28087;-33.874;151.240;2022-11-27T02:03:48;23.20;99.90
20795;DHT22;28087;-33.874;151.240;2022-11-27T02:06:24;23.10;99.90
20795;DHT22;28087;-33.874;151.240;2022-11-27T02:09:00;23.00;99.90
20795;DHT22;28087;-33.874;151.240;2022-11-27T02:11:48;23.10;99.90
20795;DHT22;28087;-33.874;151.240;2022-11-27T02:14:34;23.20;99.90
20795;DHT22;28087;-33.874;151.240;2022-11-27T02:17:17;23.20;99.90
20795;DHT22;28087;-33.874;151.240;2022-11-27T02:20:15;23.30;99.90
20795;DHT22;28087;-33.874;151.240;2022-11-27T02:26:19;23.60;99.90
20795;DHT22;28087;-33.874;151.240;2022-11-27T02:29:04;23.70;99.90
20795;DHT22;28087;-33.874;151.240;2022-11-27T02:31:45;23.70;99.90
20795;DHT22;28087;-33.874;151.240;2022-11-27T02:34:26;23.80;99.90
20795;DHT22;28087;-33.874;151.240;2022-11-27T02:37:08;23.80;99.90
20795;DHT22;28087;-33.874;151.240;2022-11-27T02:39:54;23.80;99.90
20795;DHT22;28087;-33.874;151.240;2022-11-27T02:42:36;23.70;99.90
20795;DHT22;28087;-33.874;151.240;2022-11-27T02:45:20;23.70;99.90
20795;DHT22;28087;-33.874;151.240;2022-11-27T02:47:59;23.60;99.90
20795;DHT22;28087;-33.874;151.240;2022-11-27T02:50:44;23.60;99.90
20795;DHT22;28087;-33.874;151.240;2022-11-27T02:53:28;23.60;99.90
20795;DHT22;28087;-33.874;151.240;2022-11-27T02:56:14;23.50;99.90
20795;DHT22;28087;-33.874;151.240;2022-11-27T02:59:00;23.40;99.90
20795;DHT22;28087;-33.874;151.240;2022-11-27T03:01:42;23.30;99.90
20795;DHT22;28087;-33.874;151.240;2022-11-27T03:04:21;23.40;99.90
20795;DHT22;28087;-33.874;151.240;2022-11-27T03:07:04;23.40;99.90
20795;DHT22;28087;-33.874;151.240;2022-11-27T03:09:45;23.40;99.90
20795;DHT22;28087;-33.874;151.240;2022-11-27T03:12:22;23.40;99.90
20795;DHT22;28087;-33.874;151.240;2022-11-27T03:14:58;23.40;99.90
20795;DHT22;28087;-33.874;151.240;2022-11-27T03:17:49;23.40;99.90
20795;DHT22;28087;-33.874;151.240;2022-11-27T03:20:31;23.30;99.90
20795;DHT22;28087;-33.874;151.240;2022-11-27T03:23:10;23.20;99.90
20795;DHT22;28087;-33.874;151.240;2022-11-27T03:25:45;23.10;99.90
20795;DHT22;28087;-33.874;151.240;2022-11-27T03:28:23;23.10;99.90
20795;DHT22;28087;-33.874;151.240;2022-11-27T03:30:59;23.00;99.90
20795;DHT22;28087;-33.874;151.240;2022-11-27T03:36:16;22.80;99.90
20795;DHT22;28087;-33.874;151.240;2022-11-27T03:38:54;22.80;99.90
20795;DHT22;28087;-33.874;151.240;2022-11-27T03:41:37;23.00;99.90
20795;DHT22;28087;-33.874;151.240;2022-11-27T03:44:21;23.00;99.90
20795;DHT22;28087;-33.874;151.240;2022-11-27T03:47:05;23.00;99.90
20795;DHT22;28087;-33.874;151.240;2022-11-27T03:50:03;23.00;99.90
20795;DHT22;28087;-33.874;151.240;2022-11-27T03:52:46;23.10;99.90
20795;DHT22;28087;-33.874;151.240;2022-11-27T03:55:30;23.30;99.90
20795;DHT22;28087;-33.874;151.240;2022-11-27T03:58:16;23.40;99.90
20795;DHT22;28087;-33.874;151.240;2022-11-27T04:00:55;23.50;99.90
20795;DHT22;28087;-33.874;151.240;2022-11-27T04:03:32;23.50;99.90
20795;DHT22;28087;-33.874;151.240;2022-11-27T04:06:10;23.40;99.90
20795;DHT22;28087;-33.874;151.240;2022-11-27T04:08:47;23.40;99.90
20795;DHT22;28087;-33.874;151.240;2022-11-27T04:11:25;23.40;99.90
20795;DHT22;28087;-33.874;151.240;2022-11-27T04:14:02;23.50;99.90
20795;DHT22;28087;-33.874;151.240;2022-11-27T04:16:39;23.60;99.90
20795;DHT22;28087;-33.874;151.240;2022-11-27T04:19:14;23.70;99.90
20795;DHT22;28087;-33.874;151.240;2022-11-27T04:21:54;23.70;99.90
20795;DHT22;28087;-33.874;151.240;2022-11-27T04:24:31;23.70;99.90
20795;DHT22;28087;-33.874;151.240;2022-11-27T04:27:07;23.60;99.90
20795;DHT22;28087;-33.874;151.240;2022-11-27T04:29:43;23.60;99.90
20795;DHT22;28087;-33.874;151.240;2022-11-27T04:32:20;23.70;99.90
20795;DHT22;28087;-33.874;151.240;2022-11-27T04:34:56;23.80;99.90
20795;DHT22;28087;-33.874;151.240;2022-11-27T04:37:35;23.90;99.90
20795;DHT22;28087;-33.874;151.240;2022-11-27T04:40:12;23.90;99.90
20795;DHT22;28087;-33.874;151.240;2022-11-27T04:42:50;23.90;99.90
20795;DHT22;28087;-33.874;151.240;2022-11-27T04:45:26;23.80;99.90
20795;DHT22;28087;-33.874;151.240;2022-11-27T04:48:02;23.60;99.90
20795;DHT22;28087;-33.874;151.240;2022-11-27T04:50:39;23.50;99.90
20795;DHT22;28087;-33.874;151.240;2022-11-27T04:53:19;23.40;99.90
20795;DHT22;28087;-33.874;151.240;2022-11-27T04:55:55;23.30;99.90
20795;DHT22;28087;-33.874;151.240;2022-11-27T04:58:30;23.30;99.90
20795;DHT22;28087;-33.874;151.240;2022-11-27T05:01:08;23.20;99.90
20795;DHT22;28087;-33.874;151.240;2022-11-27T05:03:47;23.20;99.90
20795;DHT22;28087;-33.874;151.240;2022-11-27T05:06:23;23.10;99.90
20795;DHT22;28087;-33.874;151.240;2022-11-27T05:09:01;23.10;99.90
20795;DHT22;28087;-33.874;151.240;2022-11-27T05:11:38;23.10;99.90
20795;DHT22;28087;-33.874;151.240;2022-11-27T05:14:15;23.20;99.90
20795;DHT22;28087;-33.874;151.240;2022-11-27T05:16:54;23.20;99.90
20795;DHT22;28087;-33.874;151.240;2022-11-27T05:19:30;23.20;99.90
20795;DHT22;28087;-33.874;151.240;2022-11-27T05:22:07;23.30;99.90
20795;DHT22;28087;-33.874;151.240;2022-11-27T05:24:46;23.30;99.90
20795;DHT22;28087;-33.874;151.240;2022-11-27T05:27:23;23.40;99.90
20795;DHT22;28087;-33.874;151.240;2022-11-27T05:29:59;23.40;99.90
20795;DHT22;28087;-33.874;151.240;2022-11-27T05:32:36;23.40;99.90
20795;DHT22;28087;-33.874;151.240;2022-11-27T05:35:13;23.50;99.90
20795;DHT22;28087;-33.874;151.240;2022-11-27T05:37:49;23.50;99.90
20795;DHT22;28087;-33.874;151.240;2022-11-27T05:40:27;23.60;99.90
20795;DHT22;28087;-33.874;151.240;2022-11-27T05:43:04;23.50;99.90
20795;DHT22;28087;-33.874;151.240;2022-11-27T05:50:53;23.60;99.90
20795;DHT22;28087;-33.874;151.240;2022-11-27T05:53:30;23.60;99.90
20795;DHT22;28087;-33.874;151.240;2022-11-27T05:56:10;23.50;99.90
20795;DHT22;28087;-33.874;151.240;2022-11-27T05:58:47;23.60;99.90
20795;DHT22;28087;-33.874;151.240;2022-11-27T06:01:24;23.60;99.90
20795;DHT22;28087;-33.874;151.240;2022-11-27T06:04:01;23.50;99.90
20795;DHT22;28087;-33.874;151.240;2022-11-27T06:06:37;23.30;99.90
20795;DHT22;28087;-33.874;151.240;2022-11-27T06:09:13;23.30;99.90
20795;DHT22;28087;-33.874;151.240;2022-11-27T06:11:51;23.20;99.90
20795;DHT22;28087;-33.874;151.240;2022-11-27T06:14:28;23.30;99.90
20795;DHT22;28087;-33.874;151.240;2022-11-27T06:17:06;23.30;99.90
20795;DHT22;28087;-33.874;151.240;2022-11-27T06:19:43;23.30;99.90
20795;DHT22;28087;-33.874;151.240;2022-11-27T06:22:19;23.30;99.90
20795;DHT22;28087;-33.874;151.240;2022-11-27T06:24:56;23.10;99.90
20795;DHT22;28087;-33.874;151.240;2022-11-27T06:27:35;23.10;99.90
20795;DHT22;28087;-33.874;151.240;2022-11-27T06:30:12;23.10;99.90
20795;DHT22;28087;-33.874;151.240;2022-11-27T06:32:49;23.10;99.90
20795;DHT22;28087;-33.874;151.240;2022-11-27T06:35:25;23.10;99.90
20795;DHT22;28087;-33.874;151.240;2022-11-27T06:38:02;23.00;99.90
20795;DHT22;28087;-33.874;151.240;2022-11-27T06:40:38;22.90;99.90
20795;DHT22;28087;-33.874;151.240;2022-11-27T06:43:17;23.00;99.90
20795;DHT22;28087;-33.874;151.240;2022-11-27T06:45:59;23.00;99.90
20795;DHT22;28087;-33.874;151.240;2022-11-27T06:48:35;23.00;99.90
20795;DHT22;28087;-33.874;151.240;2022-11-27T06:51:13;23.20;99.90
20795;DHT22;28087;-33.874;151.240;2022-11-27T06:53:49;23.20;99.90
20795;DHT22;28087;-33.874;151.240;2022-11-27T06:56:28;23.20;99.90
20795;DHT22;28087;-33.874;151.240;2022-11-27T06:59:09;23.20;99.90
20795;DHT22;28087;-33.874;151.240;2022-11-27T07:01:47;23.20;99.90
20795;DHT22;28087;-33.874;151.240;2022-11-27T07:04:22;23.20;99.90
20795;DHT22;28087;-33.874;151.240;2022-11-27T07:06:59;23.20;99.90
20795;DHT22;28087;-33.874;151.240;2022-11-27T07:09:36;23.30;99.90
20795;DHT22;28087;-33.874;151.240;2022-11-27T07:12:13;23.20;99.90
20795;DHT22;28087;-33.874;151.240;2022-11-27T07:14:51;23.20;99.90
20795;DHT22;28087;-33.874;151.240;2022-11-27T07:17:33;23.20;99.90
20795;DHT22;28087;-33.874;151.240;2022-11-27T07:20:11;23.20;99.90
20795;DHT22;28087;-33.874;151.240;2022-11-27T07:22:47;23.20;99.90
20795;DHT22;28087;-33.874;151.240;2022-11-27T07:25:22;23.20;99.90
20795;DHT22;28087;-33.874;151.240;2022-11-27T07:27:59;23.20;99.90
20795;DHT22;28087;-33.874;151.240;2022-11-27T07:30:38;23.20;99.90
20795;DHT22;28087;-33.874;151.240;2022-11-27T07:33:14;23.20;99.90
20795;DHT22;28087;-33.874;151.240;2022-11-27T07:35:56;23.20;99.90
20795;DHT22;28087;-33.874;151.240;2022-11-27T07:38:34;23.20;99.90
20795;DHT22;28087;-33.874;151.240;2022-11-27T07:41:11;23.20;99.90
20795;DHT22;28087;-33.874;151.240;2022-11-27T07:43:47;23.20;99.90
20795;DHT22;28087;-33.874;151.240;2022-11-27T07:46:25;23.10;99.90
20795;DHT22;28087;-33.874;151.240;2022-11-27T07:49:02;23.10;99.90
20795;DHT22;28087;-33.874;151.240;2022-11-27T07:51:40;23.10;99.90
20795;DHT22;28087;-33.874;151.240;2022-11-27T07:54:15;23.10;99.90
20795;DHT22;28087;-33.874;151.240;2022-11-27T07:56:52;23.10;99.90
20795;DHT22;28087;-33.874;151.240;2022-11-27T07:59:28;23.00;99.90
20795;DHT22;28087;-33.874;151.240;2022-11-27T08:02:10;23.00;99.90
20795;DHT22;28087;-33.874;151.240;2022-11-27T08:04:47;22.90;99.90
20795;DHT22;28087;-33.874;151.240;2022-11-27T08:07:27;22.80;99.90
20795;DHT22;28087;-33.874;151.240;2022-11-27T08:10:05;22.80;99.90
20795;DHT22;28087;-33.874;151.240;2022-11-27T08:12:42;22.70;99.90
20795;DHT22;28087;-33.874;151.240;2022-11-27T08:15:19;22.70;99.90
20795;DHT22;28087;-33.874;151.240;2022-11-27T08:17:57;22.70;99.90
20795;DHT22;28087;-33.874;151.240;2022-11-27T08:20:35;22.70;99.90
20795;DHT22;28087;-33.874;151.240;2022-11-27T08:23:12;22.60;99.90
20795;DHT22;28087;-33.874;151.240;2022-11-27T08:25:48;22.60;99.90
20795;DHT22;28087;-33.874;151.240;2022-11-27T08:28:24;22.70;99.90
20795;DHT22;28087;-33.874;151.240;2022-11-27T08:31:03;22.70;99.90
20795;DHT22;28087;-33.874;151.240;2022-11-27T08:33:42;22.70;99.90
20795;DHT22;28087;-33.874;151.240;2022-11-27T08:36:18;22.70;99.90
20795;DHT22;28087;-33.874;151.240;2022-11-27T08:38:55;22.70;99.90
20795;DHT22;28087;-33.874;151.240;2022-11-27T08:41:31;22.70;99.90
20795;DHT22;28087;-33.874;151.240;2022-11-27T08:44:08;22.70;99.90
20795;DHT22;28087;-33.874;151.240;2022-11-27T08:46:44;22.60;99.90
20795;DHT22;28087;-33.874;151.240;2022-11-27T08:49:22;22.60;99.90
20795;DHT22;28087;-33.874;151.240;2022-11-27T08:52:00;22.50;99.90
20795;DHT22;28087;-33.874;151.240;2022-11-27T08:57:12;22.30;99.90
20795;DHT22;28087;-33.874;151.240;2022-11-27T09:02:24;22.20;99.90
20795;DHT22;28087;-33.874;151.240;2022-11-27T09:05:05;22.10;99.90
20795;DHT22;28087;-33.874;151.240;2022-11-27T09:07:41;22.00;99.90
20795;DHT22;28087;-33.874;151.240;2022-11-27T09:10:18;22.00;99.90
20795;DHT22;28087;-33.874;151.240;2022-11-27T09:12:55;22.00;99.90
20795;DHT22;28087;-33.874;151.240;2022-11-27T09:15:32;22.00;99.90
20795;DHT22;28087;-33.874;151.240;2022-11-27T09:18:08;21.90;99.90
20795;DHT22;28087;-33.874;151.240;2022-11-27T09:20:55;21.90;99.90
20795;DHT22;28087;-33.874;151.240;2022-11-27T09:23:33;21.90;99.90
20795;DHT22;28087;-33.874;151.240;2022-11-27T09:26:11;21.90;99.90
20795;DHT22;28087;-33.874;151.240;2022-11-27T09:28:48;21.90;99.90
20795;DHT22;28087;-33.874;151.240;2022-11-27T09:31:25;21.90;99.90
20795;DHT22;28087;-33.874;151.240;2022-11-27T09:34:02;21.90;99.90
20795;DHT22;28087;-33.874;151.240;2022-11-27T09:36:41;21.90;99.90
20795;DHT22;28087;-33.874;151.240;2022-11-27T09:39:18;21.90;99.90
20795;DHT22;28087;-33.874;151.240;2022-11-27T09:41:56;21.80;99.90
20795;DHT22;28087;-33.874;151.240;2022-11-27T09:44:36;21.80;99.90
20795;DHT22;28087;-33.874;151.240;2022-11-27T09:47:22;21.80;99.90
20795;DHT22;28087;-33.874;151.240;2022-11-27T09:50:02;21.80;99.90
20795;DHT22;28087;-33.874;151.240;2022-11-27T09:52:43;21.80;99.90
20795;DHT22;28087;-33.874;151.240;2022-11-27T09:55:27;21.80;99.90
20795;DHT22;28087;-33.874;151.240;2022-11-27T09:58:10;21.80;99.90
20795;DHT22;28087;-33.874;151.240;2022-11-27T10:00:48;21.80;99.90
20795;DHT22;28087;-33.874;151.240;2022-11-27T10:03:26;21.70;99.90
20795;DHT22;28087;-33.874;151.240;2022-11-27T10:06:10;21.70;99.90
20795;DHT22;28087;-33.874;151.240;2022-11-27T10:09:04;21.70;99.90
20795;DHT22;28087;-33.874;151.240;2022-11-27T10:11:50;21.60;99.90
20795;DHT22;28087;-33.874;151.240;2022-11-27T10:14:35;21.60;99.90
20795;DHT22;28087;-33.874;151.240;2022-11-27T10:17:18;21.60;99.90
20795;DHT22;28087;-33.874;151.240;2022-11-27T10:20:13;21.60;99.90
20795;DHT22;28087;-33.874;151.240;2022-11-27T10:22:53;21.70;99.90
20795;DHT22;28087;-33.874;151.240;2022-11-27T10:25:39;21.70;99.90
20795;DHT22;28087;-33.874;151.240;2022-11-27T10:28:25;21.70;99.90
20795;DHT22;28087;-33.874;151.240;2022-11-27T10:31:08;21.70;99.90
20795;DHT22;28087;-33.874;151.240;2022-11-27T10:33:49;21.70;99.90
20795;DHT22;28087;-33.874;151.240;2022-11-27T10:36:28;21.70;99.90
20795;DHT22;28087;-33.874;151.240;2022-11-27T10:39:10;21.70;99.90
20795;DHT22;28087;-33.874;151.240;2022-11-27T10:41:55;21.70;99.90
20795;DHT22;28087;-33.874;151.240;2022-11-27T10:44:33;21.70;99.90
20795;DHT22;28087;-33.874;151.240;2022-11-27T10:47:12;21.70;99.90
20795;DHT22;28087;-33.874;151.240;2022-11-27T10:49:50;21.60;99.90
20795;DHT22;28087;-33.874;151.240;2022-11-27T10:52:27;21.50;99.90
20795;DHT22;28087;-33.874;151.240;2022-11-27T10:55:08;21.50;99.90
20795;DHT22;28087;-33.874;151.240;2022-11-27T10:58:01;21.50;99.90
20795;DHT22;28087;-33.874;151.240;2022-11-27T11:00:42;21.50;99.90
20795;DHT22;28087;-33.874;151.240;2022-11-27T11:03:19;21.50;99.90
20795;DHT22;28087;-33.874;151.240;2022-11-27T11:05:57;21.40;99.90
20795;DHT22;28087;-33.874;151.240;2022-11-27T11:09:03;21.40;99.90
20795;DHT22;28087;-33.874;151.240;2022-11-27T11:11:39;21.40;99.90
20795;DHT22;28087;-33.874;151.240;2022-11-27T11:14:19;21.40;99.90
20795;DHT22;28087;-33.874;151.240;2022-11-27T11:16:59;21.40;99.90
20795;DHT22;28087;-33.874;151.240;2022-11-27T11:19:36;21.40;99.90
20795;DHT22;28087;-33.874;151.240;2022-11-27T11:22:13;21.40;99.90
20795;DHT22;28087;-33.874;151.240;2022-11-27T11:24:52;21.40;99.90
20795;DHT22;28087;-33.874;151.240;2022-11-27T11:27:29;21.40;99.90
20795;DHT22;28087;-33.874;151.240;2022-11-27T11:30:20;21.30;99.90
20795;DHT22;28087;-33.874;151.240;2022-11-27T11:33:00;21.40;99.90
20795;DHT22;28087;-33.874;151.240;2022-11-27T11:35:38;21.30;99.90
20795;DHT22;28087;-33.874;151.240;2022-11-27T11:38:16;21.30;99.90
20795;DHT22;28087;-33.874;151.240;2022-11-27T11:41:04;21.30;99.90
20795;DHT22;28087;-33.874;151.240;2022-11-27T11:43:41;21.20;99.90
20795;DHT22;28087;-33.874;151.240;2022-11-27T11:46:30;21.20;99.90
20795;DHT22;28087;-33.874;151.240;2022-11-27T11:49:16;21.20;99.90
20795;DHT22;28087;-33.874;151.240;2022-11-27T11:52:12;21.20;99.90
20795;DHT22;28087;-33.874;151.240;2022-11-27T11:54:59;21.20;99.90
20795;DHT22;28087;-33.874;151.240;2022-11-27T11:58:11;21.20;99.90
20795;DHT22;28087;-33.874;151.240;2022-11-27T12:00:59;21.20;99.90
20795;DHT22;28087;-33.874;151.240;2022-11-27T12:04:11;21.20;99.90
20795;DHT22;28087;-33.874;151.240;2022-11-27T12:06:57;21.20;99.90
20795;DHT22;28087;-33.874;151.240;2022-11-27T12:09:45;21.20;99.90
20795;DHT22;28087;-33.874;151.240;2022-11-27T12:12:38;21.10;99.90
20795;DHT22;28087;-33.874;151.240;2022-11-27T12:15:21;21.10;99.90
20795;DHT22;28087;-33.874;151.240;2022-11-27T12:18:00;21.00;99.90
20795;DHT22;28087;-33.874;151.240;2022-11-27T12:20:56;21.00;99.90
20795;DHT22;28087;-33.874;151.240;2022-11-27T12:23:48;20.90;99.90
20795;DHT22;28087;-33.874;151.240;2022-11-27T12:26:34;20.80;99.90
20795;DHT22;28087;-33.874;151.240;2022-11-27T12:32:39;20.70;99.90
20795;DHT22;28087;-33.874;151.240;2022-11-27T12:35:35;20.70;99.90
20795;DHT22;28087;-33.874;151.240;2022-11-27T12:38:31;20.60;99.90
20795;DHT22;28087;-33.874;151.240;2022-11-27T12:41:25;20.60;99.90
20795;DHT22;28087;-33.874;151.240;2022-11-27T12:44:13;20.60;99.90
20795;DHT22;28087;-33.874;151.240;2022-11-27T12:46:56;20.60;99.90
20795;DHT22;28087;-33.874;151.240;2022-11-27T12:49:39;20.50;99.90
20795;DHT22;28087;-33.874;151.240;2022-11-27T12:52:18;20.30;99.90
20795;DHT22;28087;-33.874;151.240;2022-11-27T12:55:01;20.30;99.90
20795;DHT22;28087;-33.874;151.240;2022-11-27T12:57:46;20.30;99.90
20795;DHT22;28087;-33.874;151.240;2022-11-27T13:00:24;20.30;99.90
20795;DHT22;28087;-33.874;151.240;2022-11-27T13:03:08;20.30;99.90
20795;DHT22;28087;-33.874;151.240;2022-11-27T13:05:54;20.30;99.90
20795;DHT22;28087;-33.874;151.240;2022-11-27T13:08:40;20.30;99.90
20795;DHT22;28087;-33.874;151.240;2022-11-27T13:11:29;20.30;99.90
20795;DHT22;28087;-33.874;151.240;2022-11-27T13:14:11;20.40;99.90
20795;DHT22;28087;-33.874;151.240;2022-11-27T13:16:51;20.40;99.90
20795;DHT22;28087;-33.874;151.240;2022-11-27T13:19:30;20.40;99.90
20795;DHT22;28087;-33.874;151.240;2022-11-27T13:22:13;20.40;99.90
20795;DHT22;28087;-33.874;151.240;2022-11-27T13:24:51;20.40;99.90
20795;DHT22;28087;-33.874;151.240;2022-11-27T13:27:31;20.40;99.90
20795;DHT22;28087;-33.874;151.240;2022-11-27T13:30:15;20.30;99.90
20795;DHT22;28087;-33.874;151.240;2022-11-27T13:32:54;20.20;99.90
20795;DHT22;28087;-33.874;151.240;2022-11-27T13:35:35;20.20;99.90
20795;DHT22;28087;-33.874;151.240;2022-11-27T13:38:20;20.10;99.90
20795;DHT22;28087;-33.874;151.240;2022-11-27T13:40:59;20.10;99.90
20795;DHT22;28087;-33.874;151.240;2022-11-27T13:43:43;20.00;99.90
20795;DHT22;28087;-33.874;151.240;2022-11-27T13:46:23;20.00;99.90
20795;DHT22;28087;-33.874;151.240;2022-11-27T13:49:01;20.00;99.90
20795;DHT22;28087;-33.874;151.240;2022-11-27T13:51:38;20.00;99.90
20795;DHT22;28087;-33.874;151.240;2022-11-27T13:54:16;20.00;99.90
20795;DHT22;28087;-33.874;151.240;2022-11-27T13:57:10;20.00;99.90
20795;DHT22;28087;-33.874;151.240;2022-11-27T13:59:58;20.00;99.90
20795;DHT22;28087;-33.874;151.240;2022-11-27T14:02:43;19.90;99.90
20795;DHT22;28087;-33.874;151.240;2022-11-27T14:05:33;19.90;99.90
20795;DHT22;28087;-33.874;151.240;2022-11-27T14:08:20;19.90;99.90
20795;DHT22;28087;-33.874;151.240;2022-11-27T14:10:58;19.80;99.90
20795;DHT22;28087;-33.874;151.240;2022-11-27T14:13:38;19.80;99.90
20795;DHT22;28087;-33.874;151.240;2022-11-27T14:16:25;19.70;99.90
20795;DHT22;28087;-33.874;151.240;2022-11-27T14:19:03;19.80;99.90
20795;DHT22;28087;-33.874;151.240;2022-11-27T14:21:41;19.90;99.90
20795;DHT22;28087;-33.874;151.240;2022-11-27T14:24:32;19.80;99.90
20795;DHT22;28087;-33.874;151.240;2022-11-27T14:27:20;19.80;99.90
20795;DHT22;28087;-33.874;151.240;2022-11-27T14:29:57;19.80;99.90
20795;DHT22;28087;-33.874;151.240;2022-11-27T14:32:48;19.80;99.90
20795;DHT22;28087;-33.874;151.240;2022-11-27T14:35:26;19.70;99.90
20795;DHT22;28087;-33.874;151.240;2022-11-27T14:38:14;19.70;99.90
20795;DHT22;28087;-33.874;151.240;2022-11-27T14:40:52;19.70;99.90
20795;DHT22;28087;-33.874;151.240;2022-11-27T14:43:28;19.70;99.90
20795;DHT22;28087;-33.874;151.240;2022-11-27T14:46:06;19.60;99.90
20795;DHT22;28087;-33.874;151.240;2022-11-27T14:48:49;19.60;99.90
20795;DHT22;28087;-33.874;151.240;2022-11-27T14:51:31;19.50;99.90
20795;DHT22;28087;-33.874;151.240;2022-11-27T14:54:11;19.60;99.90
20795;DHT22;28087;-33.874;151.240;2022-11-27T14:56:49;19.60;99.90
20795;DHT22;28087;-33.874;151.240;2022-11-27T14:59:26;19.60;99.90
20795;DHT22;28087;-33.874;151.240;2022-11-27T15:02:12;19.60;99.90
20795;DHT22;28087;-33.874;151.240;2022-11-27T15:05:05;19.60;99.90
20795;DHT22;28087;-33.874;151.240;2022-11-27T15:07:42;19.60;99.90
20795;DHT22;28087;-33.874;151.240;2022-11-27T15:10:30;19.60;99.90
20795;DHT22;28087;-33.874;151.240;2022-11-27T15:13:17;19.70;99.90
20795;DHT22;28087;-33.874;151.240;2022-11-27T15:16:01;19.70;99.90
20795;DHT22;28087;-33.874;151.240;2022-11-27T15:18:39;19.70;99.90
20795;DHT22;28087;-33.874;151.240;2022-11-27T15:21:19;19.80;99.90
20795;DHT22;28087;-33.874;151.240;2022-11-27T15:23:57;19.80;99.90
20795;DHT22;28087;-33.874;151.240;2022-11-27T15:26:34;19.80;99.90
20795;DHT22;28087;-33.874;151.240;2022-11-27T15:29:31;19.80;99.90
20795;DHT22;28087;-33.874;151.240;2022-11-27T15:32:16;19.80;99.90
20795;DHT22;28087;-33.874;151.240;2022-11-27T15:34:54;19.90;99.90
20795;DHT22;28087;-33.874;151.240;2022-11-27T15:37:32;19.80;99.90
20795;DHT22;28087;-33.874;151.240;2022-11-27T15:40:30;19.80;99.90
20795;DHT22;28087;-33.874;151.240;2022-11-27T15:43:10;19.80;99.90
20795;DHT22;28087;-33.874;151.240;2022-11-27T15:45:46;19.80;99.90
20795;DHT22;28087;-33.874;151.240;2022-11-27T15:48:23;19.80;99.90
20795;DHT22;28087;-33.874;151.240;2022-11-27T15:51:00;19.80;99.90
20795;DHT22;28087;-33.874;151.240;2022-11-27T15:53:39;19.70;99.90
20795;DHT22;28087;-33.874;151.240;2022-11-27T15:56:15;19.80;99.90
20795;DHT22;28087;-33.874;151.240;2022-11-27T15:58:51;19.80;99.90
20795;DHT22;28087;-33.874;151.240;2022-11-27T16:01:27;19.80;99.90
20795;DHT22;28087;-33.874;151.240;2022-11-27T16:04:05;19.80;99.90
20795;DHT22;28087;-33.874;151.240;2022-11-27T16:06:42;19.80;99.90
20795;DHT22;28087;-33.874;151.240;2022-11-27T16:09:20;19.80;99.90
20795;DHT22;28087;-33.874;151.240;2022-11-27T16:11:56;19.70;99.90
20795;DHT22;28087;-33.874;151.240;2022-11-27T16:14:34;19.70;99.90
20795;DHT22;28087;-33.874;151.240;2022-11-27T16:17:10;19.80;99.90
20795;DHT22;28087;-33.874;151.240;2022-11-27T16:19:46;19.80;99.90
20795;DHT22;28087;-33.874;151.240;2022-11-27T16:22:22;19.80;99.90
20795;DHT22;28087;-33.874;151.240;2022-11-27T16:25:02;19.70;99.90
20795;DHT22;28087;-33.874;151.240;2022-11-27T16:27:39;19.70;99.90
20795;DHT22;28087;-33.874;151.240;2022-11-27T16:30:16;19.70;99.90